createdAt,value
2022-09-07T00:00:44.733Z,5.60
2022-09-07T00:03:12.009Z,4.55
2022-09-07T00:05:46.672Z,5.07
2022-09-07T00:08:15.366Z,5.70
2022-09-07T00:10:51.000Z,5.25
2022-09-07T00:13:18.110Z,5.47
2022-09-07T00:15:45.426Z,5.72
2022-09-07T00:18:12.674Z,5.70
2022-09-07T00:20:39.902Z,6.22
2022-09-07T00:23:07.060Z,5.35
2022-09-07T00:25:39.217Z,5.97
2022-09-07T00:28:08.056Z,6.28
2022-09-07T00:30:42.201Z,5.78
2022-09-07T00:33:09.744Z,6.15
2022-09-07T00:35:41.094Z,6.03
2022-09-07T00:38:09.491Z,5.50
2022-09-07T00:40:36.881Z,5.13
2022-09-07T00:43:04.954Z,5.95
2022-09-07T00:45:32.288Z,5.25
2022-09-07T00:48:04.938Z,6.20
2022-09-07T00:50:41.086Z,5.73
2022-09-07T00:53:29.858Z,5.60
2022-09-07T00:55:59.963Z,5.80
2022-09-07T00:58:28.074Z,5.32
2022-09-07T01:00:56.105Z,6.07
2022-09-07T01:03:28.799Z,5.45
2022-09-07T01:06:02.757Z,6.25
2022-09-07T01:08:30.720Z,5.75
2022-09-07T01:10:59.418Z,6.18
2022-09-07T01:13:30.267Z,5.40
2022-09-07T01:16:39.311Z,6.53
2022-09-07T01:19:16.616Z,5.50
2022-09-07T01:22:26.677Z,6.03
2022-09-07T01:25:19.263Z,5.95
2022-09-07T01:28:01.719Z,6.15
2022-09-07T01:30:32.028Z,6.15
2022-09-07T01:33:23.627Z,6.03
2022-09-07T01:36:12.522Z,6.32
2022-09-07T01:38:47.931Z,6.28
2022-09-07T01:41:24.842Z,5.88
2022-09-07T01:43:58.011Z,6.47
2022-09-07T01:46:37.420Z,6.45
2022-09-07T01:49:33.817Z,5.53
2022-09-07T01:52:08.756Z,6.00
2022-09-07T01:54:45.597Z,5.75
2022-09-07T01:57:22.953Z,5.72
2022-09-07T02:00:18.624Z,6.20
2022-09-07T02:03:17.886Z,6.38
2022-09-07T02:05:45.003Z,5.93
2022-09-07T02:08:35.019Z,6.00
2022-09-07T02:11:07.403Z,6.20
2022-09-07T02:13:40.102Z,5.50
2022-09-07T02:16:20.627Z,5.47
2022-09-07T02:18:53.301Z,5.40
2022-09-07T02:21:24.887Z,5.30
2022-09-07T02:23:58.253Z,6.20
2022-09-07T02:26:28.020Z,6.13
2022-09-07T02:28:55.996Z,6.40
2022-09-07T02:31:23.290Z,6.68
2022-09-07T02:33:50.460Z,6.10
2022-09-07T02:36:22.607Z,5.53
2022-09-07T02:38:50.010Z,6.57
2022-09-07T02:41:41.552Z,6.25
2022-09-07T02:44:25.141Z,6.65
2022-09-07T02:47:10.527Z,6.53
2022-09-07T02:49:59.540Z,6.45
2022-09-07T02:52:45.486Z,6.38
2022-09-07T02:55:30.897Z,5.75
2022-09-07T02:58:29.240Z,5.82
2022-09-07T03:01:18.651Z,6.00
2022-09-07T03:04:00.853Z,5.78
2022-09-07T03:06:55.559Z,6.82
2022-09-07T03:09:28.240Z,6.45
2022-09-07T03:11:55.631Z,5.70
2022-09-07T03:14:26.097Z,6.07
2022-09-07T03:16:57.259Z,6.55
2022-09-07T03:19:24.502Z,6.47
2022-09-07T03:21:51.964Z,5.93
2022-09-07T03:24:19.539Z,6.50
2022-09-07T03:26:52.068Z,6.22
2022-09-07T03:29:19.405Z,6.10
2022-09-07T03:31:46.721Z,6.30
2022-09-07T03:34:14.068Z,5.72
2022-09-07T03:36:41.225Z,5.97
2022-09-07T03:39:10.111Z,6.20
2022-09-07T03:41:37.282Z,6.05
2022-09-07T03:44:05.785Z,6.35
2022-09-07T03:46:34.472Z,6.68
2022-09-07T03:49:01.750Z,5.80
2022-09-07T03:51:28.963Z,6.07
2022-09-07T03:53:56.152Z,6.13
2022-09-07T03:56:24.943Z,7.05
2022-09-07T03:58:54.407Z,6.35
2022-09-07T04:01:24.915Z,6.53
2022-09-07T04:03:53.534Z,5.65
2022-09-07T04:06:20.902Z,6.85
2022-09-07T04:08:48.193Z,6.57
2022-09-07T04:11:17.937Z,5.93
2022-09-07T04:13:46.132Z,6.00
2022-09-07T04:16:17.703Z,6.22
2022-09-07T04:18:45.559Z,6.70
2022-09-07T04:21:13.615Z,5.55
2022-09-07T04:23:42.573Z,6.43
2022-09-07T04:26:21.991Z,5.85
2022-09-07T04:28:49.732Z,5.97
2022-09-07T04:31:18.296Z,6.63
2022-09-07T04:33:46.925Z,6.13
2022-09-07T04:36:15.410Z,7.28
2022-09-07T04:38:42.879Z,6.43
2022-09-07T04:41:13.238Z,6.55
2022-09-07T04:43:43.366Z,6.50
2022-09-07T04:46:21.965Z,7.55
2022-09-07T04:48:54.874Z,6.75
2022-09-07T04:51:23.984Z,6.45
2022-09-07T04:53:53.097Z,6.85
2022-09-07T04:56:21.188Z,6.68
2022-09-07T04:58:49.651Z,6.90
2022-09-07T05:01:20.037Z,7.32
2022-09-07T05:03:48.258Z,7.55
2022-09-07T05:06:16.876Z,6.70
2022-09-07T05:08:47.452Z,6.82
2022-09-07T05:11:16.021Z,7.22
2022-09-07T05:13:43.618Z,8.30
2022-09-07T05:16:23.552Z,7.10
2022-09-07T05:18:53.459Z,8.50
2022-09-07T05:21:23.624Z,7.30
2022-09-07T05:23:52.587Z,8.48
2022-09-07T05:26:22.244Z,7.55
2022-09-07T05:28:50.707Z,9.88
2022-09-07T05:31:20.764Z,8.95
2022-09-07T05:36:39.477Z,8.15
2022-09-07T05:39:07.753Z,8.25
2022-09-07T05:41:35.378Z,8.43
2022-09-07T05:46:52.338Z,7.53
2022-09-07T05:49:19.513Z,9.25
2022-09-07T05:51:47.056Z,9.68
2022-09-07T05:54:14.483Z,8.90
2022-09-07T05:56:41.641Z,9.60
2022-09-07T05:59:08.908Z,7.97
2022-09-07T06:01:36.222Z,8.90
2022-09-07T06:04:03.441Z,8.35
2022-09-07T06:06:31.247Z,8.15
2022-09-07T06:08:58.530Z,8.05
2022-09-07T06:11:27.458Z,8.27
2022-09-07T06:13:54.830Z,8.55
2022-09-07T06:16:22.888Z,8.77
2022-09-07T06:18:50.385Z,8.00
2022-09-07T06:21:23.355Z,8.43
2022-09-07T06:23:51.442Z,9.40
2022-09-07T06:26:19.648Z,10.20
2022-09-07T06:28:52.087Z,8.52
2022-09-07T06:31:23.384Z,8.55
2022-09-07T06:33:51.687Z,10.40
2022-09-07T06:36:21.556Z,9.55
2022-09-07T06:38:50.107Z,8.93
2022-09-07T06:44:18.790Z,8.70
2022-09-07T06:49:28.885Z,11.35
2022-09-07T06:51:55.993Z,9.70
2022-09-07T06:57:10.409Z,9.07
2022-09-07T06:59:38.685Z,9.90
2022-09-07T07:02:07.171Z,8.70
2022-09-07T07:04:40.203Z,8.60
2022-09-07T07:09:39.851Z,8.35
2022-09-07T07:12:07.236Z,8.30
2022-09-07T07:14:37.191Z,7.78
2022-09-07T07:17:05.833Z,8.48
2022-09-07T07:19:33.111Z,8.55
2022-09-07T07:24:47.419Z,8.57
2022-09-07T07:27:14.599Z,8.70
2022-09-07T07:29:41.680Z,7.28
2022-09-07T07:32:09.102Z,7.97
2022-09-07T07:34:36.494Z,8.40
2022-09-07T07:37:03.655Z,8.07
2022-09-07T07:42:18.506Z,8.73
2022-09-07T07:44:45.788Z,7.63
2022-09-07T07:47:12.958Z,8.57
2022-09-07T07:49:40.099Z,9.07
2022-09-07T07:54:54.535Z,7.85
2022-09-07T07:57:21.616Z,7.85
2022-09-07T07:59:48.818Z,7.97
2022-09-07T08:02:17.125Z,6.53
2022-09-07T08:04:44.702Z,7.80
2022-09-07T08:07:14.500Z,7.93
2022-09-07T08:09:43.807Z,8.27
2022-09-07T08:12:13.873Z,8.55
2022-09-07T08:14:41.791Z,8.77
2022-09-07T08:17:12.142Z,8.13
2022-09-07T08:19:39.611Z,7.78
2022-09-07T08:22:08.861Z,7.55
2022-09-07T08:24:36.054Z,7.28
2022-09-07T08:27:03.561Z,7.13
2022-09-07T08:29:34.463Z,7.18
2022-09-07T08:32:04.546Z,7.00
2022-09-07T08:34:31.668Z,7.35
2022-09-07T08:36:58.739Z,7.32
2022-09-07T08:39:25.987Z,7.40
2022-09-07T08:42:16.137Z,6.68
2022-09-07T08:44:57.897Z,6.78
2022-09-07T08:47:36.371Z,6.28
2022-09-07T08:50:31.543Z,5.88
2022-09-07T08:53:16.355Z,5.80
2022-09-07T08:56:04.331Z,6.07
2022-09-07T09:07:54.518Z,5.97
2022-09-07T09:10:30.767Z,6.65
2022-09-07T09:12:57.854Z,6.80
2022-09-07T09:15:33.833Z,5.95
2022-09-07T09:18:22.759Z,6.40
2022-09-07T09:20:58.096Z,5.90
2022-09-07T09:23:39.767Z,6.00
2022-09-07T09:26:23.487Z,6.25
2022-09-07T09:31:23.450Z,5.78
2022-09-07T09:34:05.822Z,5.30
2022-09-07T09:36:36.487Z,5.78
2022-09-07T09:39:29.233Z,6.40
2022-09-07T09:41:59.997Z,6.13
2022-09-07T09:44:34.932Z,5.95
2022-09-07T09:49:51.487Z,5.93
2022-09-07T09:52:30.544Z,5.80
2022-09-07T09:55:30.153Z,5.68
2022-09-07T10:04:00.493Z,5.45
2022-09-07T10:06:29.919Z,5.70
2022-09-07T10:09:00.806Z,5.72
2022-09-07T10:12:05.725Z,5.45
2022-09-07T10:14:33.491Z,4.95
2022-09-07T10:17:02.217Z,5.55
2022-09-07T10:19:34.619Z,4.53
2022-09-07T10:22:32.798Z,4.95
2022-09-07T10:25:03.320Z,5.40
2022-09-07T10:27:32.939Z,5.80
2022-09-07T10:30:01.370Z,5.43
2022-09-07T10:32:54.436Z,5.07
2022-09-07T10:35:28.132Z,4.85
2022-09-07T10:38:33.600Z,5.15
2022-09-07T10:41:07.509Z,4.50
2022-09-07T10:43:50.385Z,4.88
2022-09-07T10:47:03.662Z,5.50
2022-09-07T10:53:18.305Z,4.90
2022-09-07T10:56:24.413Z,4.50
2022-09-07T10:59:04.991Z,4.35
2022-09-07T11:02:00.513Z,4.75
2022-09-07T11:04:30.474Z,4.38
2022-09-07T11:07:17.876Z,4.07
2022-09-07T11:10:01.469Z,3.70
2022-09-07T11:15:13.311Z,2.95
2022-09-07T11:17:53.307Z,3.50
2022-09-07T11:20:41.802Z,4.00
2022-09-07T11:23:11.171Z,3.90
2022-09-07T11:26:07.525Z,3.33
2022-09-07T11:32:01.192Z,3.58
2022-09-07T11:34:35.571Z,3.55
2022-09-07T11:37:17.764Z,3.83
2022-09-07T11:39:51.692Z,3.35
2022-09-07T11:45:22.249Z,3.83
2022-09-07T11:48:10.553Z,3.50
2022-09-07T11:50:43.553Z,3.35
2022-09-07T11:53:20.356Z,3.97
2022-09-07T11:55:54.337Z,3.08
2022-09-07T11:58:45.784Z,3.50
2022-09-07T12:01:40.964Z,3.42
2022-09-07T12:04:29.762Z,3.10
2022-09-07T12:07:19.103Z,3.00
2022-09-07T12:10:06.588Z,3.10
2022-09-07T12:12:52.627Z,3.20
2022-09-07T12:15:22.995Z,2.90
2022-09-07T12:18:17.326Z,2.83
2022-09-07T12:20:47.140Z,3.17
2022-09-07T12:23:17.313Z,3.20
2022-09-07T12:25:49.817Z,3.55
2022-09-07T12:28:25.883Z,2.92
2022-09-07T12:30:55.753Z,3.10
2022-09-07T12:33:26.319Z,3.20
2022-09-07T12:35:57.028Z,3.00
2022-09-07T12:38:30.308Z,3.05
2022-09-07T12:43:42.885Z,2.70
2022-09-07T12:46:19.600Z,3.05
2022-09-07T12:49:04.744Z,3.10
2022-09-07T12:54:24.320Z,3.22
2022-09-07T12:57:35.954Z,3.20
2022-09-07T13:00:17.040Z,3.10
2022-09-07T13:06:12.400Z,3.13
2022-09-07T13:08:51.676Z,2.83
2022-09-07T13:11:21.513Z,3.10
2022-09-07T13:14:23.250Z,3.10
2022-09-07T13:17:28.643Z,2.92
2022-09-07T13:19:55.849Z,3.33
2022-09-07T13:22:35.448Z,2.92
2022-09-07T13:25:20.307Z,2.85
2022-09-07T13:28:19.412Z,2.80
2022-09-07T13:31:04.885Z,2.95
2022-09-07T13:33:35.144Z,3.05
2022-09-07T13:36:05.194Z,2.80
2022-09-07T13:38:36.759Z,2.55
2022-09-07T13:41:15.170Z,3.15
2022-09-07T13:43:48.486Z,3.20
2022-09-07T13:46:59.057Z,2.53
2022-09-07T13:49:44.428Z,3.05
2022-09-07T13:52:37.739Z,3.42
2022-09-07T13:55:26.767Z,2.65
2022-09-07T13:58:10.341Z,3.00
2022-09-07T14:00:49.096Z,3.25
2022-09-07T14:03:17.298Z,3.00
2022-09-07T14:05:44.396Z,3.00
2022-09-07T14:08:28.889Z,3.47
2022-09-07T14:10:56.003Z,2.85
2022-09-07T14:13:23.112Z,3.33
2022-09-07T14:15:51.019Z,3.08
2022-09-07T14:18:36.862Z,2.67
2022-09-07T14:21:04.837Z,2.78
2022-09-07T14:23:35.234Z,2.70
2022-09-07T14:26:34.798Z,2.72
2022-09-07T14:29:02.104Z,2.63
2022-09-07T14:31:29.428Z,3.10
2022-09-07T14:33:59.017Z,3.13
2022-09-07T14:36:46.963Z,3.30
2022-09-07T14:39:17.154Z,2.60
2022-09-07T14:41:44.988Z,3.22
2022-09-07T14:44:33.624Z,2.90
2022-09-07T14:47:07.613Z,3.20
2022-09-07T14:49:35.101Z,2.92
2022-09-07T14:52:02.803Z,3.05
2022-09-07T14:54:32.780Z,2.47
2022-09-07T14:57:06.775Z,3.58
2022-09-07T14:59:45.512Z,3.20
2022-09-07T15:02:18.740Z,3.50
2022-09-07T15:04:47.526Z,2.80
2022-09-07T15:07:38.953Z,2.65
2022-09-07T15:10:15.636Z,3.20
2022-09-07T15:12:44.308Z,3.50
2022-09-07T15:15:27.118Z,3.88
2022-09-07T15:18:00.821Z,3.13
2022-09-07T15:20:33.238Z,3.40
2022-09-07T15:23:01.525Z,3.08
2022-09-07T15:25:29.107Z,3.08
2022-09-07T15:27:56.782Z,3.20
2022-09-07T15:30:25.295Z,3.35
2022-09-07T15:32:52.467Z,2.90
2022-09-07T15:35:19.807Z,3.00
2022-09-07T15:38:04.445Z,3.08
2022-09-07T15:41:03.765Z,3.38
2022-09-07T15:43:29.131Z,3.83
2022-09-07T15:45:56.441Z,4.20
2022-09-07T15:48:27.963Z,4.13
2022-09-07T15:52:04.845Z,3.70
2022-09-07T15:54:12.707Z,2.90
2022-09-07T15:56:40.936Z,2.92
2022-09-07T15:59:10.296Z,3.45
2022-09-07T16:01:55.306Z,3.47
2022-09-07T16:04:24.123Z,4.82
2022-09-07T16:06:51.444Z,3.53
2022-09-07T16:09:21.895Z,3.20
2022-09-07T16:11:50.113Z,3.30
2022-09-07T16:14:18.040Z,3.15
2022-09-07T16:19:34.933Z,3.38
2022-09-07T16:22:03.323Z,4.20
2022-09-07T16:24:30.564Z,3.53
2022-09-07T16:26:57.757Z,3.97
2022-09-07T16:29:24.880Z,5.18
2022-09-07T16:34:40.246Z,7.05
2022-09-07T16:37:07.962Z,6.40
2022-09-07T16:39:35.153Z,6.20
2022-09-07T16:42:02.361Z,5.10
2022-09-07T16:44:29.528Z,5.35
2022-09-07T16:46:56.725Z,5.50
2022-09-07T16:49:23.824Z,4.78
2022-09-07T16:51:51.040Z,4.20
2022-09-07T16:54:18.160Z,5.00
2022-09-07T16:56:45.269Z,3.97
2022-09-07T16:59:17.066Z,4.40
2022-09-07T17:01:44.183Z,4.68
2022-09-07T17:04:11.857Z,3.92
2022-09-07T17:06:40.299Z,4.43
2022-09-07T17:09:08.085Z,4.18
2022-09-07T17:11:36.582Z,3.97
2022-09-07T17:14:06.594Z,3.80
2022-09-07T17:16:37.208Z,3.70
2022-09-07T17:21:55.371Z,4.10
2022-09-07T17:24:24.534Z,4.03
2022-09-07T17:26:51.605Z,4.22
2022-09-07T17:29:18.953Z,4.30
2022-09-07T17:34:33.211Z,5.32
2022-09-07T17:37:01.175Z,3.45
2022-09-07T17:39:29.607Z,4.47
2022-09-07T17:41:57.081Z,4.35
2022-09-07T17:44:24.400Z,4.38
2022-09-07T17:46:51.773Z,4.18
2022-09-07T17:49:19.183Z,4.20
2022-09-07T17:51:46.774Z,4.60
2022-09-07T17:54:17.495Z,4.70
2022-09-07T17:56:46.022Z,4.22
2022-09-07T18:02:00.992Z,4.88
2022-09-07T18:04:28.516Z,4.65
2022-09-07T18:06:56.318Z,5.03
2022-09-07T18:09:23.510Z,5.50
2022-09-07T18:11:50.980Z,4.72
2022-09-07T18:14:19.420Z,5.22
2022-09-07T18:16:49.302Z,4.50
2022-09-07T18:19:18.283Z,4.68
2022-09-07T18:21:46.588Z,5.30
2022-09-07T18:24:19.947Z,4.88
2022-09-07T18:29:29.519Z,5.07
2022-09-07T18:31:58.702Z,5.18
2022-09-07T18:34:26.253Z,4.85
2022-09-07T18:36:53.843Z,5.85
2022-09-07T18:39:22.689Z,7.10
2022-09-07T18:41:49.887Z,8.65
2022-09-07T18:47:06.422Z,5.63
2022-09-07T18:49:33.521Z,5.60
2022-09-07T18:54:48.320Z,5.40
2022-09-07T18:57:15.706Z,5.20
2022-09-07T18:59:43.074Z,5.78
2022-09-07T19:02:10.888Z,5.05
2022-09-07T19:07:29.558Z,4.90
2022-09-07T19:09:57.163Z,5.28
2022-09-07T19:12:24.690Z,5.03
2022-09-07T19:14:51.893Z,5.90
2022-09-07T19:17:19.529Z,5.13
2022-09-07T19:19:47.000Z,5.50
2022-09-07T19:22:14.088Z,5.93
2022-09-07T19:24:41.149Z,7.45
2022-09-07T19:27:08.308Z,5.95
2022-09-07T19:29:35.538Z,5.70
2022-09-07T19:32:06.944Z,5.85
2022-09-07T19:34:35.141Z,6.90
2022-09-07T19:37:02.858Z,6.85
2022-09-07T19:39:30.098Z,8.00
2022-09-07T19:41:57.348Z,7.80
2022-09-07T19:44:24.630Z,7.53
2022-09-07T19:46:51.703Z,8.30
2022-09-07T19:49:19.103Z,7.75
2022-09-07T19:51:46.324Z,7.75
2022-09-07T19:54:13.869Z,8.18
2022-09-07T19:56:44.996Z,7.95
2022-09-07T19:59:12.451Z,7.18
2022-09-07T20:01:40.741Z,7.00
2022-09-07T20:04:13.871Z,7.63
2022-09-07T20:06:43.745Z,7.60
2022-09-07T20:09:10.951Z,6.88
2022-09-07T20:11:39.354Z,7.63
2022-09-07T20:14:08.502Z,6.85
2022-09-07T20:16:39.491Z,6.75
2022-09-07T20:19:07.569Z,6.63
2022-09-07T20:21:36.930Z,7.25
2022-09-07T20:24:04.585Z,6.15
2022-09-07T20:26:32.567Z,5.97
2022-09-07T20:29:23.860Z,6.88
2022-09-07T20:31:47.508Z,6.70
2022-09-07T20:34:14.697Z,6.03
2022-09-07T20:36:41.892Z,6.47
2022-09-07T20:39:15.277Z,6.00
2022-09-07T20:44:09.505Z,6.43
2022-09-07T20:46:36.808Z,6.93
2022-09-07T20:49:05.277Z,7.28
2022-09-07T20:51:32.568Z,6.00
2022-09-07T20:53:59.920Z,6.20
2022-09-07T20:56:28.726Z,6.90
2022-09-07T20:58:58.073Z,6.68
2022-09-07T21:01:25.380Z,6.10
2022-09-07T21:03:55.233Z,6.43
2022-09-07T21:06:24.193Z,6.68
2022-09-07T21:08:52.290Z,6.60
2022-09-07T21:11:25.308Z,7.32
2022-09-07T21:14:08.197Z,6.57
2022-09-07T21:16:36.529Z,6.70
2022-09-07T21:19:06.956Z,6.15
2022-09-07T21:21:38.878Z,6.70
2022-09-07T21:24:07.260Z,6.70
2022-09-07T21:26:34.407Z,6.03
2022-09-07T21:29:03.958Z,6.13
2022-09-07T21:31:32.637Z,6.75
2022-09-07T21:34:01.763Z,6.38
2022-09-07T21:36:29.560Z,6.03
2022-09-07T21:38:57.212Z,6.05
2022-09-07T21:41:25.508Z,6.45
2022-09-07T21:44:01.372Z,5.93
2022-09-07T21:46:31.350Z,10.63
2022-09-07T21:48:59.628Z,9.88
2022-09-07T21:51:27.448Z,10.27
2022-09-07T21:54:01.568Z,17.02
2022-09-07T21:56:30.348Z,18.70
2022-09-07T21:58:59.577Z,16.25
2022-09-07T22:01:28.301Z,16.67
2022-09-07T22:03:58.444Z,13.27
2022-09-07T22:06:27.958Z,12.20
2022-09-07T22:08:55.997Z,9.20
2022-09-07T22:11:24.890Z,7.63
2022-09-07T22:14:01.911Z,6.25
2022-09-07T22:16:30.656Z,5.60
2022-09-07T22:18:58.025Z,5.10
2022-09-07T22:21:27.720Z,5.60
2022-09-07T22:23:57.284Z,4.50
2022-09-07T22:26:27.609Z,6.05
2022-09-07T22:28:55.450Z,4.85
2022-09-07T22:31:30.612Z,5.20
2022-09-07T22:33:58.841Z,5.13
2022-09-07T22:36:28.667Z,5.20
2022-09-07T22:39:01.345Z,5.30
2022-09-07T22:41:34.196Z,5.53
2022-09-07T22:44:01.452Z,4.72
2022-09-07T22:46:30.479Z,5.80
2022-09-07T22:48:58.880Z,5.38
2022-09-07T22:51:26.887Z,5.45
2022-09-07T22:53:54.993Z,4.55
2022-09-07T22:56:32.755Z,5.30
2022-09-07T22:59:10.544Z,5.45
2022-09-07T23:01:37.963Z,4.88
2022-09-07T23:04:05.923Z,5.10
2022-09-07T23:06:41.476Z,5.50
2022-09-07T23:09:11.536Z,4.82
2022-09-07T23:11:39.262Z,5.13
2022-09-07T23:14:11.759Z,5.05
2022-09-07T23:16:39.224Z,5.35
2022-09-07T23:19:07.004Z,4.75
2022-09-07T23:21:34.147Z,5.13
2022-09-07T23:24:02.793Z,4.40
2022-09-07T23:26:31.435Z,5.07
2022-09-07T23:29:01.052Z,5.32
2022-09-07T23:31:29.740Z,5.28
2022-09-07T23:33:57.946Z,5.30
2022-09-07T23:36:25.388Z,4.45
2022-09-07T23:38:54.904Z,4.68
2022-09-07T23:41:22.541Z,5.28
2022-09-07T23:43:49.589Z,5.20
2022-09-07T23:46:17.174Z,4.88
2022-09-07T23:48:45.182Z,5.68
2022-09-07T23:51:13.206Z,5.05
2022-09-07T23:53:41.097Z,5.13
2022-09-07T23:56:08.297Z,4.88
2022-09-07T23:58:35.346Z,4.60
